LGAV/ATH METAR and TAF weather

Enter ICAO airport designator
Station Type Date Time Source
LGAV METAR 2021/04/18 01:50 UTC NOAA

LGAV 180150Z 14004KT 9999 FEW020 12/10 Q1011 NOSIG


Station Type Date Time Source
LGAV Decoded METAR 2021/04/18 01:50 UTC NOAA

Athens Eleftherios Venizelos International Airport, Greece (LGAV) 37-56N 023-56E
Apr 17, 2021 - 09:50 PM EDT / 2021.04.18 0150 UTC
Wind: from the SE (140 degrees) at 5 MPH (4 KT):0
Visibility: greater than 7 mile(s):0
Sky conditions: mostly clear
Temperature: 53 F (12 C)
Dew Point: 50 F (10 C)
Relative Humidity: 87%
Pressure (altimeter): 29.85 in. Hg (1011 hPa)
ob: LGAV 180150Z 14004KT 9999 FEW020 12/10 Q1011 NOSIG
cycle: 2

Station Type Date Time Source
LGAV TAF 2021/04/17 19:09 UTC NOAA

TAF
AMD TAF
AMD LGAV 171903Z 1719/1818 VRB05KT 9999 FEW020
TEMPO 1719/1818 SCT020 BKN070

Example: see airport list